createdAt,value
2019-03-25T00:00:08.083Z,29.82
2019-03-25T00:02:38.100Z,30.62
2019-03-25T00:05:06.172Z,30.65
2019-03-25T00:07:34.034Z,29.98
2019-03-25T00:10:02.930Z,30.55
2019-03-25T00:12:30.693Z,30.75
2019-03-25T00:14:58.764Z,30.70
2019-03-25T00:17:26.733Z,32.25
2019-03-25T00:19:54.701Z,32.00
2019-03-25T00:22:22.668Z,31.75
2019-03-25T00:24:50.639Z,31.33
2019-03-25T00:27:18.605Z,31.60
2019-03-25T00:29:46.166Z,32.13
2019-03-25T00:32:14.032Z,33.25
2019-03-25T00:34:41.896Z,32.90
2019-03-25T00:37:09.763Z,33.65
2019-03-25T00:39:37.934Z,34.75
2019-03-25T00:42:05.704Z,34.48
2019-03-25T00:44:34.184Z,34.60
2019-03-25T00:47:01.942Z,35.83
2019-03-25T00:49:29.712Z,35.33
2019-03-25T00:51:57.573Z,35.40
2019-03-25T00:54:25.950Z,36.35
2019-03-25T00:56:53.817Z,38.40
2019-03-25T00:59:22.812Z,36.60
2019-03-25T01:01:51.290Z,36.68
2019-03-25T01:04:18.961Z,36.58
2019-03-25T01:06:46.801Z,36.03
2019-03-25T01:09:14.580Z,37.40
2019-03-25T01:11:49.073Z,37.00
2019-03-25T01:14:12.057Z,38.75
2019-03-25T01:16:39.817Z,40.70
2019-03-25T01:19:07.691Z,41.42
2019-03-25T01:21:35.344Z,40.63
2019-03-25T01:24:03.331Z,40.20
2019-03-25T01:26:31.180Z,42.03
2019-03-25T01:28:58.837Z,43.65
2019-03-25T01:31:26.609Z,42.10
2019-03-25T01:33:54.371Z,44.50
2019-03-25T01:36:22.237Z,43.73
2019-03-25T01:38:50.101Z,43.65
2019-03-25T01:41:17.969Z,45.05
2019-03-25T01:43:45.736Z,46.45
2019-03-25T01:46:13.598Z,46.00
2019-03-25T01:48:41.361Z,47.43
2019-03-25T01:51:09.332Z,48.17
2019-03-25T01:53:38.288Z,48.15
2019-03-25T01:56:06.087Z,48.28
2019-03-25T01:58:33.851Z,51.23
2019-03-25T02:01:03.155Z,53.87
2019-03-25T02:03:31.223Z,54.80
2019-03-25T02:05:59.907Z,56.05
2019-03-25T02:08:27.667Z,54.90
2019-03-25T02:10:55.434Z,53.70
2019-03-25T02:13:24.120Z,57.43
2019-03-25T02:15:51.879Z,59.08
2019-03-25T02:18:19.647Z,57.27
2019-03-25T02:20:47.411Z,60.08
2019-03-25T02:23:15.284Z,59.33
2019-03-25T02:25:43.140Z,61.80
2019-03-25T02:28:11.005Z,60.40
2019-03-25T02:30:38.874Z,62.15
2019-03-25T02:33:06.642Z,59.53
2019-03-25T02:35:34.626Z,62.15
2019-03-25T02:38:02.370Z,61.60
2019-03-25T02:40:30.138Z,65.40
2019-03-25T02:42:57.902Z,63.92
2019-03-25T02:45:25.659Z,64.25
2019-03-25T02:47:53.440Z,62.90
2019-03-25T02:50:21.297Z,64.60
2019-03-25T02:52:49.568Z,66.37
2019-03-25T02:55:17.432Z,64.37
2019-03-25T02:57:45.197Z,69.47
2019-03-25T03:00:15.314Z,70.12
2019-03-25T03:02:44.004Z,88.78
2019-03-25T03:05:11.471Z,72.97
2019-03-25T03:07:39.326Z,70.57
2019-03-25T03:10:07.083Z,70.25
2019-03-25T03:12:34.954Z,69.53
2019-03-25T03:15:04.869Z,70.50
2019-03-25T03:17:32.221Z,72.40
2019-03-25T03:19:59.985Z,72.95
2019-03-25T03:22:27.751Z,72.92
2019-03-25T03:24:55.613Z,70.92
2019-03-25T03:27:23.483Z,72.10
2019-03-25T03:29:51.247Z,71.72
2019-03-25T03:32:19.014Z,74.67
2019-03-25T03:34:46.932Z,75.05
2019-03-25T03:37:14.744Z,74.87
2019-03-25T03:39:42.500Z,74.20
2019-03-25T03:42:10.476Z,76.07
2019-03-25T03:44:38.339Z,78.52
2019-03-25T03:47:06.306Z,84.17
2019-03-25T03:49:34.284Z,76.25
2019-03-25T03:52:02.248Z,77.67
2019-03-25T03:54:30.828Z,80.35
2019-03-25T03:56:58.695Z,78.60
2019-03-25T03:59:27.688Z,78.55
2019-03-25T04:01:56.066Z,73.78
2019-03-25T04:04:24.030Z,70.25
2019-03-25T04:06:52.126Z,67.53
2019-03-25T04:09:20.072Z,68.25
2019-03-25T04:11:47.937Z,67.30
2019-03-25T04:14:15.908Z,67.20
2019-03-25T04:16:43.777Z,68.15
2019-03-25T04:19:11.738Z,67.03
2019-03-25T04:21:39.707Z,65.67
2019-03-25T04:24:07.674Z,65.20
2019-03-25T04:26:35.652Z,67.10
2019-03-25T04:29:03.639Z,66.05
2019-03-25T04:31:31.583Z,63.52
2019-03-25T04:33:59.550Z,63.28
2019-03-25T04:36:27.626Z,64.47
2019-03-25T04:38:55.592Z,62.03
2019-03-25T04:41:23.562Z,59.75
2019-03-25T04:43:51.426Z,58.25
2019-03-25T04:46:19.398Z,60.20
2019-03-25T04:48:47.385Z,60.60
2019-03-25T04:51:15.332Z,63.52
2019-03-25T04:53:43.917Z,58.80
2019-03-25T04:56:11.985Z,58.68
2019-03-25T04:58:40.058Z,57.48
2019-03-25T05:01:08.432Z,57.58
2019-03-25T05:03:36.813Z,59.25
2019-03-25T05:06:04.881Z,59.77
2019-03-25T05:08:32.857Z,55.05
2019-03-25T05:11:01.138Z,53.38
2019-03-25T05:13:30.424Z,52.55
2019-03-25T05:15:58.401Z,51.73
2019-03-25T05:18:26.373Z,52.48
2019-03-25T05:20:54.334Z,57.27
2019-03-25T05:23:22.504Z,54.03
2019-03-25T05:25:50.478Z,51.37
2019-03-25T05:28:18.543Z,51.65
2019-03-25T05:30:46.619Z,55.10
2019-03-25T05:33:14.593Z,59.77
2019-03-25T05:35:42.658Z,59.13
2019-03-25T05:38:10.730Z,54.83
2019-03-25T05:40:38.493Z,55.05
2019-03-25T05:43:06.577Z,58.15
2019-03-25T05:45:34.531Z,60.40
2019-03-25T05:48:02.600Z,66.45
2019-03-25T05:50:30.978Z,67.78
2019-03-25T05:52:59.462Z,71.17
2019-03-25T05:55:27.533Z,76.07
2019-03-25T05:57:55.813Z,68.85
2019-03-25T06:00:26.034Z,83.20
2019-03-25T06:02:53.595Z,57.95
2019-03-25T06:05:21.656Z,55.50
2019-03-25T06:07:49.629Z,55.00
2019-03-25T06:10:17.588Z,56.83
2019-03-25T06:12:45.665Z,52.40
2019-03-25T06:15:13.845Z,55.17
2019-03-25T06:17:41.907Z,54.30
2019-03-25T06:20:09.772Z,51.33
2019-03-25T06:22:37.860Z,48.05
2019-03-25T06:25:06.019Z,54.38
2019-03-25T06:27:33.779Z,42.98
2019-03-25T06:30:04.284Z,40.63
2019-03-25T06:32:31.869Z,51.02
2019-03-25T06:34:59.841Z,41.55
2019-03-25T06:37:27.805Z,41.20
2019-03-25T06:39:55.872Z,39.00
2019-03-25T06:42:23.950Z,37.08
2019-03-25T06:44:51.921Z,37.80
2019-03-25T06:47:19.990Z,34.13
2019-03-25T06:49:48.059Z,36.13
2019-03-25T06:52:16.542Z,34.88
2019-03-25T06:54:44.213Z,35.85
2019-03-25T06:57:12.310Z,33.08
2019-03-25T06:59:40.240Z,31.40
2019-03-25T07:02:08.417Z,31.45
2019-03-25T07:04:36.380Z,33.48
2019-03-25T07:07:04.353Z,32.13
2019-03-25T07:09:32.423Z,34.15
2019-03-25T07:12:00.394Z,32.88
2019-03-25T07:14:28.358Z,31.97
2019-03-25T07:16:56.325Z,37.03
2019-03-25T07:19:24.317Z,37.70
2019-03-25T07:21:52.266Z,33.90
2019-03-25T07:24:20.334Z,37.85
2019-03-25T07:26:48.303Z,34.08
2019-03-25T07:29:16.277Z,33.30
2019-03-25T07:31:44.242Z,32.63
2019-03-25T07:34:12.210Z,33.20
2019-03-25T07:36:40.283Z,30.95
2019-03-25T07:39:08.555Z,30.72
2019-03-25T07:41:36.422Z,27.20
2019-03-25T07:44:04.494Z,28.52
2019-03-25T07:46:32.562Z,28.07
2019-03-25T07:49:00.562Z,24.72
2019-03-25T07:51:28.603Z,17.85
2019-03-25T07:53:57.093Z,20.00
2019-03-25T07:56:24.861Z,20.50
2019-03-25T07:58:52.826Z,21.87
2019-03-25T08:01:21.093Z,21.40
2019-03-25T08:03:48.853Z,22.65
2019-03-25T08:06:16.845Z,24.80
2019-03-25T08:08:44.702Z,25.82
2019-03-25T08:11:12.662Z,23.42
2019-03-25T08:13:40.740Z,22.70
2019-03-25T08:16:09.413Z,21.52
2019-03-25T08:18:37.388Z,24.63
2019-03-25T08:21:05.453Z,21.37
2019-03-25T08:23:33.418Z,20.92
2019-03-25T08:26:01.393Z,20.75
2019-03-25T08:28:29.459Z,19.95
2019-03-25T08:30:57.533Z,17.37
2019-03-25T08:33:25.396Z,18.42
2019-03-25T08:35:53.478Z,20.72
2019-03-25T08:38:21.541Z,18.32
2019-03-25T08:40:49.404Z,19.67
2019-03-25T08:43:17.374Z,23.02
2019-03-25T08:45:45.348Z,21.57
2019-03-25T08:48:13.310Z,20.90
2019-03-25T08:50:41.687Z,17.17
2019-03-25T08:53:11.194Z,16.93
2019-03-25T08:55:39.162Z,16.57
2019-03-25T08:58:12.032Z,15.03
2019-03-25T09:00:37.468Z,16.45
2019-03-25T09:03:05.220Z,15.25
2019-03-25T09:05:33.195Z,16.77
2019-03-25T09:08:01.054Z,18.77
2019-03-25T09:10:29.026Z,16.23
2019-03-25T09:12:57.095Z,16.82
2019-03-25T09:15:24.967Z,17.37
2019-03-25T09:17:52.872Z,16.27
2019-03-25T09:20:20.791Z,15.70
2019-03-25T09:22:48.769Z,15.35
2019-03-25T09:25:16.837Z,16.45
2019-03-25T09:27:44.698Z,17.48
2019-03-25T09:30:17.378Z,16.17
2019-03-25T09:32:45.175Z,15.58
2019-03-25T09:35:13.311Z,16.02
2019-03-25T09:37:41.386Z,16.42
2019-03-25T09:40:10.793Z,16.52
2019-03-25T09:42:38.758Z,17.73
2019-03-25T09:45:07.645Z,15.93
2019-03-25T09:47:37.832Z,17.17
2019-03-25T09:50:06.039Z,16.17
2019-03-25T09:52:38.635Z,18.17
2019-03-25T09:55:05.916Z,20.82
2019-03-25T09:57:33.539Z,18.45
2019-03-25T10:00:03.508Z,18.12
2019-03-25T10:02:32.439Z,13.80
2019-03-25T10:05:00.611Z,15.53
2019-03-25T10:07:29.299Z,13.68
2019-03-25T10:09:57.271Z,12.60
2019-03-25T10:12:25.241Z,11.97
2019-03-25T10:14:53.420Z,12.55
2019-03-25T10:17:22.196Z,12.63
2019-03-25T10:19:50.166Z,12.50
2019-03-25T10:22:18.141Z,13.08
2019-03-25T10:24:46.310Z,13.05
2019-03-25T10:27:14.889Z,13.43
2019-03-25T10:29:42.858Z,20.12
2019-03-25T10:32:10.942Z,15.10
2019-03-25T10:34:38.999Z,14.10
2019-03-25T10:37:07.070Z,12.98
2019-03-25T10:39:35.241Z,13.75
2019-03-25T10:42:03.212Z,14.07
2019-03-25T10:44:31.288Z,13.40
2019-03-25T10:46:59.251Z,16.65
2019-03-25T10:49:27.220Z,14.87
2019-03-25T10:51:55.188Z,16.12
2019-03-25T10:54:23.793Z,15.50
2019-03-25T10:56:51.639Z,13.88
2019-03-25T10:59:19.722Z,12.25
2019-03-25T11:01:48.292Z,12.25
2019-03-25T11:04:16.054Z,12.85
2019-03-25T11:06:44.843Z,14.45
2019-03-25T11:09:12.834Z,13.78
2019-03-25T11:11:40.876Z,13.48
2019-03-25T11:14:08.850Z,12.60
2019-03-25T11:16:38.768Z,12.73
2019-03-25T11:19:06.626Z,14.70
2019-03-25T11:21:34.707Z,12.45
2019-03-25T11:24:02.775Z,15.53
2019-03-25T11:26:30.744Z,13.13
2019-03-25T11:29:04.598Z,15.13
2019-03-25T11:31:28.631Z,13.00
2019-03-25T11:33:56.495Z,12.58
2019-03-25T11:36:24.580Z,12.07
2019-03-25T11:38:52.627Z,12.68
2019-03-25T11:41:21.530Z,11.33
2019-03-25T11:43:49.492Z,11.50
2019-03-25T11:46:17.660Z,11.73
2019-03-25T11:48:45.631Z,12.13
2019-03-25T11:51:13.602Z,10.40
2019-03-25T11:53:42.194Z,10.60
2019-03-25T11:56:10.064Z,12.07
2019-03-25T11:58:38.019Z,12.15
2019-03-25T12:01:06.397Z,11.85
2019-03-25T12:03:34.262Z,11.38
2019-03-25T12:06:02.234Z,11.73
2019-03-25T12:08:30.093Z,12.90
2019-03-25T12:10:58.170Z,12.90
2019-03-25T12:13:26.339Z,10.98
2019-03-25T12:15:54.202Z,12.23
2019-03-25T12:18:22.175Z,14.23
2019-03-25T12:20:50.141Z,11.25
2019-03-25T12:23:26.044Z,11.55
2019-03-25T12:25:47.821Z,11.20
2019-03-25T12:28:15.786Z,10.68
2019-03-25T12:30:44.891Z,11.28
2019-03-25T12:33:12.850Z,11.65
2019-03-25T12:35:40.922Z,10.85
2019-03-25T12:38:09.009Z,12.18
2019-03-25T12:40:36.870Z,12.78
2019-03-25T12:43:05.032Z,15.13
2019-03-25T12:45:33.111Z,15.90
2019-03-25T12:48:01.073Z,13.72
2019-03-25T12:50:29.039Z,12.07
2019-03-25T12:52:57.319Z,11.25
2019-03-25T12:55:24.978Z,11.65
2019-03-25T12:57:52.949Z,11.30
2019-03-25T13:00:36.075Z,10.93
2019-03-25T13:03:04.448Z,13.15
2019-03-25T13:05:35.385Z,11.40
2019-03-25T13:08:03.163Z,13.25
2019-03-25T13:13:37.798Z,16.52
2019-03-25T13:16:05.765Z,15.98
2019-03-25T13:18:33.631Z,14.78
2019-03-25T13:21:01.601Z,12.98
2019-03-25T13:23:29.564Z,15.23
2019-03-25T13:25:57.538Z,12.85
2019-03-25T13:28:25.504Z,13.45
2019-03-25T13:30:53.472Z,16.90
2019-03-25T13:33:21.650Z,13.93
2019-03-25T13:35:49.611Z,13.30
2019-03-25T13:38:17.580Z,12.60
2019-03-25T13:40:45.655Z,13.83
2019-03-25T13:43:14.235Z,11.40
2019-03-25T13:45:42.406Z,11.18
2019-03-25T13:48:10.273Z,13.13
2019-03-25T13:50:38.860Z,14.58
2019-03-25T13:53:06.928Z,11.78
2019-03-25T13:55:34.911Z,12.00
2019-03-25T13:58:03.378Z,11.97
2019-03-25T14:00:37.181Z,13.53
2019-03-25T14:03:04.841Z,14.58
2019-03-25T14:05:32.918Z,14.07
2019-03-25T14:08:00.990Z,15.28
2019-03-25T14:10:28.970Z,14.60
2019-03-25T14:12:56.921Z,16.10
2019-03-25T14:15:24.890Z,17.45
2019-03-25T14:17:52.883Z,17.32
2019-03-25T14:20:20.862Z,18.07
2019-03-25T14:22:48.906Z,19.75
2019-03-25T14:25:16.869Z,24.95
2019-03-25T14:27:44.957Z,21.48
2019-03-25T14:30:15.215Z,20.02
2019-03-25T14:32:43.135Z,18.67
2019-03-25T14:35:11.409Z,16.90
2019-03-25T14:37:39.270Z,16.23
2019-03-25T14:40:07.242Z,17.52
2019-03-25T14:42:35.212Z,16.60
2019-03-25T14:45:04.614Z,15.70
2019-03-25T14:47:32.372Z,15.80
2019-03-25T14:50:00.378Z,15.10
2019-03-25T14:52:28.823Z,16.35
2019-03-25T14:54:56.689Z,14.38
2019-03-25T14:57:24.760Z,17.32
2019-03-25T14:59:52.625Z,15.08
2019-03-25T15:02:21.102Z,16.60
2019-03-25T15:04:49.176Z,17.10
2019-03-25T15:07:17.149Z,17.98
2019-03-25T15:09:45.122Z,15.18
2019-03-25T15:12:13.082Z,16.17
2019-03-25T15:14:41.156Z,15.48
2019-03-25T15:17:09.137Z,19.15
2019-03-25T15:19:37.090Z,19.15
2019-03-25T15:22:05.067Z,19.00
2019-03-25T15:24:33.032Z,31.10
2019-03-25T15:27:00.998Z,20.50
2019-03-25T15:29:28.865Z,20.23
2019-03-25T15:31:56.833Z,22.20
2019-03-25T15:34:24.905Z,21.73
2019-03-25T15:36:53.080Z,25.08
2019-03-25T15:39:21.154Z,23.05
2019-03-25T15:41:49.324Z,19.57
2019-03-25T15:44:17.291Z,19.17
2019-03-25T15:46:55.290Z,23.35
2019-03-25T15:49:14.865Z,23.42
2019-03-25T15:51:43.973Z,29.65
2019-03-25T15:54:12.240Z,28.10
2019-03-25T15:56:40.101Z,27.48
2019-03-25T15:59:07.967Z,39.60
2019-03-25T16:01:36.341Z,27.65
2019-03-25T16:04:04.208Z,26.27
2019-03-25T16:06:33.007Z,41.63
2019-03-25T16:09:00.978Z,42.20
2019-03-25T16:11:28.942Z,27.65
2019-03-25T16:13:56.902Z,24.80
2019-03-25T16:16:25.076Z,29.67
2019-03-25T16:18:52.944Z,32.55
2019-03-25T16:21:20.922Z,26.60
2019-03-25T16:23:48.880Z,25.25
2019-03-25T16:26:17.260Z,26.30
2019-03-25T16:28:45.019Z,25.57
2019-03-25T16:31:13.000Z,25.35
2019-03-25T16:33:41.064Z,28.90
2019-03-25T16:36:09.360Z,24.77
2019-03-25T16:38:37.406Z,33.40
2019-03-25T16:41:05.279Z,90.55
2019-03-25T16:43:34.267Z,35.45
2019-03-25T16:46:02.339Z,41.23
2019-03-25T16:48:30.954Z,43.45
2019-03-25T16:50:58.993Z,36.13
2019-03-25T16:53:27.576Z,31.73
2019-03-25T16:55:55.443Z,29.00
2019-03-25T16:58:23.409Z,27.85
2019-03-25T17:00:51.786Z,23.77
2019-03-25T17:03:19.654Z,31.12
2019-03-25T17:05:47.620Z,23.90
2019-03-25T17:08:15.790Z,24.60
2019-03-25T17:10:43.869Z,18.62
2019-03-25T17:13:11.937Z,14.05
2019-03-25T17:15:39.907Z,15.70
2019-03-25T17:18:07.771Z,15.78
2019-03-25T17:20:35.946Z,17.40
2019-03-25T17:23:03.913Z,19.73
2019-03-25T17:25:32.603Z,16.82
2019-03-25T17:28:00.567Z,17.57
2019-03-25T17:30:28.428Z,17.60
2019-03-25T17:32:56.504Z,18.75
2019-03-25T17:35:24.573Z,18.67
2019-03-25T17:37:53.363Z,14.47
2019-03-25T17:40:21.395Z,13.55
2019-03-25T17:42:49.508Z,12.82
2019-03-25T17:45:17.579Z,13.28
2019-03-25T17:47:47.398Z,13.38
2019-03-25T17:50:16.189Z,15.08
2019-03-25T17:52:45.250Z,15.95
2019-03-25T17:55:14.986Z,16.87
2019-03-25T17:57:43.175Z,14.53
2019-03-25T18:00:11.429Z,13.88
2019-03-25T18:02:39.391Z,15.05
2019-03-25T18:05:08.085Z,14.10
2019-03-25T18:07:36.159Z,14.73
2019-03-25T18:10:06.986Z,14.93
2019-03-25T18:12:39.137Z,12.95
2019-03-25T18:15:08.285Z,11.95
2019-03-25T18:17:36.013Z,15.50
2019-03-25T18:20:06.032Z,13.90
2019-03-25T18:22:39.479Z,11.73
2019-03-25T18:25:05.860Z,13.40
2019-03-25T18:27:33.826Z,15.03
2019-03-25T18:30:01.895Z,17.15
2019-03-25T18:32:30.278Z,16.27
2019-03-25T18:34:58.453Z,14.45
2019-03-25T18:37:26.626Z,15.85
2019-03-25T18:39:54.592Z,15.75
2019-03-25T18:42:23.277Z,16.05
2019-03-25T18:44:51.142Z,14.83
2019-03-25T18:47:19.221Z,16.30
2019-03-25T18:49:47.285Z,20.48
2019-03-25T18:52:15.252Z,18.85
2019-03-25T18:54:45.683Z,18.80
2019-03-25T18:57:13.663Z,20.32
2019-03-25T18:59:41.825Z,23.38
2019-03-25T19:02:10.199Z,23.77
2019-03-25T19:04:37.860Z,22.58
2019-03-25T19:07:05.830Z,28.10
2019-03-25T19:09:33.702Z,28.23
2019-03-25T19:12:01.684Z,31.27
2019-03-25T19:14:30.472Z,29.98
2019-03-25T19:16:59.988Z,30.60
2019-03-25T19:19:27.634Z,29.52
2019-03-25T19:21:55.588Z,27.73
2019-03-25T19:24:23.722Z,29.27
2019-03-25T19:26:52.869Z,30.23
2019-03-25T19:29:21.645Z,31.57
2019-03-25T19:31:49.648Z,31.10
2019-03-25T19:34:17.479Z,31.00
2019-03-25T19:36:45.662Z,27.82
2019-03-25T19:39:13.726Z,26.90
2019-03-25T19:41:41.789Z,23.32
2019-03-25T19:44:09.758Z,22.40
2019-03-25T19:46:37.731Z,19.37
2019-03-25T19:49:05.728Z,18.95
2019-03-25T19:51:33.692Z,19.20
2019-03-25T19:54:02.148Z,17.62
2019-03-25T19:56:30.731Z,18.48
2019-03-25T19:59:01.876Z,18.98
2019-03-25T20:01:30.382Z,18.87
2019-03-25T20:03:58.327Z,19.95
2019-03-25T20:06:26.678Z,20.32
2019-03-25T20:08:54.571Z,21.25
2019-03-25T20:11:22.565Z,22.32
2019-03-25T20:13:50.607Z,23.70
2019-03-25T20:16:18.682Z,23.75
2019-03-25T20:18:46.659Z,27.40
2019-03-25T20:21:14.509Z,26.65
2019-03-25T20:23:42.576Z,26.12
2019-03-25T20:26:10.751Z,28.15
2019-03-25T20:28:38.625Z,29.87
2019-03-25T20:31:06.633Z,27.00
2019-03-25T20:33:34.763Z,30.25
2019-03-25T20:36:02.757Z,22.35
2019-03-25T20:38:30.944Z,18.55
2019-03-25T20:40:58.773Z,18.20
2019-03-25T20:43:26.951Z,17.82
2019-03-25T20:45:54.950Z,17.00
2019-03-25T20:48:22.882Z,17.60
2019-03-25T20:50:51.018Z,18.60
2019-03-25T20:53:19.666Z,17.37
2019-03-25T20:55:47.307Z,19.55
2019-03-25T20:58:15.340Z,23.87
2019-03-25T21:00:45.374Z,27.37
2019-03-25T21:03:13.358Z,43.60
2019-03-25T21:05:41.595Z,43.48
2019-03-25T21:08:12.138Z,37.67
2019-03-25T21:10:40.225Z,22.67
2019-03-25T21:13:08.273Z,19.10
2019-03-25T21:15:36.281Z,18.30
2019-03-25T21:18:04.554Z,18.37
2019-03-25T21:20:32.538Z,16.12
2019-03-25T21:23:00.741Z,17.57
2019-03-25T21:25:28.856Z,14.80
2019-03-25T21:27:56.930Z,14.25
2019-03-25T21:30:25.011Z,14.45
2019-03-25T21:32:58.666Z,14.83
2019-03-25T21:35:23.289Z,13.53
2019-03-25T21:37:51.568Z,12.35
2019-03-25T21:40:19.662Z,12.18
2019-03-25T21:42:47.631Z,10.85
2019-03-25T21:45:15.616Z,11.28
2019-03-25T21:47:43.940Z,11.93
2019-03-25T21:50:12.458Z,10.08
2019-03-25T21:52:40.818Z,9.58
2019-03-25T21:55:08.810Z,9.18
2019-03-25T21:57:36.800Z,9.40
2019-03-25T22:00:05.881Z,8.75
2019-03-25T22:02:33.921Z,7.78
2019-03-25T22:05:01.985Z,7.95
2019-03-25T22:07:30.875Z,8.55
2019-03-25T22:09:58.848Z,8.38
2019-03-25T22:12:26.812Z,8.53
2019-03-25T22:14:54.884Z,8.40
2019-03-25T22:17:22.646Z,8.15
2019-03-25T22:19:50.620Z,8.90
2019-03-25T22:22:18.593Z,7.40
2019-03-25T22:24:46.769Z,8.20
2019-03-25T22:27:14.726Z,7.70
2019-03-25T22:29:42.695Z,7.50
2019-03-25T22:32:10.867Z,6.95
2019-03-25T22:34:38.940Z,7.45
2019-03-25T22:37:07.009Z,7.08
2019-03-25T22:39:34.977Z,7.33
2019-03-25T22:42:02.950Z,7.15
2019-03-25T22:44:31.324Z,6.78
2019-03-25T22:46:59.294Z,6.05
2019-03-25T22:49:27.159Z,6.10
2019-03-25T22:51:55.123Z,6.67
2019-03-25T22:54:23.810Z,6.62
2019-03-25T22:56:51.682Z,6.28
2019-03-25T22:59:19.752Z,6.35
2019-03-25T23:01:48.435Z,7.20
2019-03-25T23:04:16.712Z,6.92
2019-03-25T23:06:44.784Z,9.28
2019-03-25T23:09:13.470Z,7.15
2019-03-25T23:11:41.434Z,6.30
2019-03-25T23:14:09.405Z,6.55
2019-03-25T23:16:37.373Z,6.25
2019-03-25T23:19:05.348Z,7.35
2019-03-25T23:21:33.313Z,7.58
2019-03-25T23:24:01.383Z,7.58
2019-03-25T23:26:29.661Z,9.78
2019-03-25T23:28:57.421Z,9.63
2019-03-25T23:31:25.389Z,9.35
2019-03-25T23:33:53.358Z,8.00
2019-03-25T23:36:21.535Z,8.80
2019-03-25T23:38:49.707Z,8.10
2019-03-25T23:41:17.672Z,7.67
2019-03-25T23:43:45.643Z,7.05
2019-03-25T23:46:13.615Z,6.95
2019-03-25T23:48:41.580Z,7.65
2019-03-25T23:51:09.748Z,6.90
2019-03-25T23:53:38.231Z,6.15
2019-03-25T23:56:06.103Z,6.62
2019-03-25T23:58:34.173Z,6.50
